Seville, Spain

4:16 AM CEST on July 28, 2016 (GMT +0200)
San Pablo | | Change Station
Active Advisory: >

Elev 102 ft 37.42 °N, 5.89 °W | Updated 16 minutes ago

Clear
Clear
72 °F
Feels Like 72 °F
N
4
Wind Variable Wind from WSW

Today
High -- | Low -- °F
--% Chance of Precip.
Yesterday
High -- | Low -- °F
Precip. -- in
Pressure 29.98 in
Visibility -9999.0 miles
Clouds
Dew Point 70 °F
Humidity 94%
Rainfall 0.00 in
Snow Depth Not available.
7:24 AM 9:34 PM
Last Quarter, 37% visible
METAR LEZL 280200Z 24003KT CAVOK 22/21 Q1015 NOSIG
Pressure 29.98 in
Visibility -9999.0 miles
Clouds
Dew Point 70 °F
Humidity 94%
Rainfall 0.00 in
Snow Depth Not available.
7:24 AM 9:34 PM
Last Quarter, 37% visible
METAR LEZL 280200Z 24003KT CAVOK 22/21 Q1015 NOSIG

10-Day Weather Forecast

×

Almanac

Astronomy

Jul. 28, 2016 Rise Set
Actual Time
Civil Twilight
Nautical Twilight
Astronomical Twilight
Moon
Length of Visible Light
Length of Day
Tomorrow will be .
, % of the Moon is Illuminated

Today's Extremes

Country Highs Country Lows

Community

WunderPhotos

Upload Photos

1,928,012 photos uploaded!

WunderBlog® & News

Nearby

Air Quality

  Air Quality AQ Index Pollutant
Not available.

Snow Depth

Station Depth Elevation

Earthquake Activity

City Distance Mag. Time & Date
Minimum magnitude displayed is 2.5.

Coastal Water Temperatures

Place Temperature

Stations

Nearby Weather Stations

Station Location Temp. Windchill Dew Point Humidity Wind Precip. Elev Updated Type